Time;durP1;ratioP1;P1;durP2;ratioP2;P2;SDS_P1;SDS_P2;PMS_P1;PMS_P2;Temp;Humidity;BMP_temperature;BMP_pressure;BME280_temperature;BME280_humidity;BME280_pressure;Samples;Min_cycle;Max_cycle;Signal;HPM_P1;HPM_P2
2021/10/17 00:00:56;;;;;;;8.70;6.33;;;9.30;99.90;;;;;;5033884;28;20182;-80
2021/10/17 00:03:22;;;;;;;12.40;6.90;;;9.40;99.90;;;;;;5033513;28;20577;-80
2021/10/17 00:05:48;;;;;;;9.30;7.20;;;9.40;99.90;;;;;;5035965;28;20200;-80
2021/10/17 00:08:13;;;;;;;11.70;6.57;;;9.40;99.90;;;;;;5033037;28;20174;-80
2021/10/17 00:10:39;;;;;;;10.50;7.07;;;9.40;99.90;;;;;;5033455;28;20166;-80
2021/10/17 00:13:08;;;;;;;10.97;6.47;;;9.40;99.90;;;;;;5034273;28;20173;-80
2021/10/17 00:15:36;;;;;;;9.65;5.78;;;9.50;99.90;;;;;;5034812;28;20213;-80
2021/10/17 00:18:04;;;;;;;10.55;6.85;;;9.50;99.90;;;;;;5039943;28;20188;-79
2021/10/17 00:20:30;;;;;;;7.20;5.90;;;9.50;99.90;;;;;;5036335;28;20162;-80
2021/10/17 00:22:56;;;;;;;8.80;5.80;;;9.50;99.90;;;;;;5033982;28;20168;-80
2021/10/17 00:25:23;;;;;;;9.67;6.43;;;9.50;99.90;;;;;;5032453;28;20704;-80
2021/10/17 00:27:49;;;;;;;8.48;5.82;;;9.50;99.90;;;;;;5033345;28;20576;-80
2021/10/17 00:30:23;;;;;;;8.82;6.70;;;9.50;99.90;;;;;;5032233;28;20169;-80
2021/10/17 00:32:50;;;;;;;8.02;5.03;;;9.60;99.90;;;;;;5031497;28;20182;-79
2021/10/17 00:35:17;;;;;;;9.68;6.00;;;9.60;99.90;;;;;;5048319;28;20205;-80
2021/10/17 00:37:43;;;;;;;8.07;5.57;;;9.60;99.90;;;;;;4999240;28;20181;-80
2021/10/17 00:40:14;;;;;;;9.82;5.55;;;9.60;99.90;;;;;;5048510;28;20662;-80
2021/10/17 00:42:40;;;;;;;9.18;6.03;;;9.50;99.90;;;;;;5035687;28;20680;-79
2021/10/17 00:45:13;;;;;;;8.18;5.97;;;9.60;99.90;;;;;;5030128;28;20646;-79
2021/10/17 00:47:39;;;;;;;7.65;5.30;;;9.50;99.90;;;;;;5024155;28;20205;-80
2021/10/17 00:50:06;;;;;;;7.43;5.93;;;9.50;99.90;;;;;;5023237;28;20178;-80
2021/10/17 00:52:34;;;;;;;9.95;5.88;;;9.50;99.90;;;;;;5030871;28;20173;-79
2021/10/17 00:54:59;;;;;;;6.68;5.18;;;9.50;99.90;;;;;;5013174;28;20229;-79
2021/10/17 00:57:25;;;;;;;5.97;5.13;;;9.40;99.90;;;;;;5028733;28;20254;-79
2021/10/17 00:59:51;;;;;;;7.57;5.40;;;9.40;99.90;;;;;;5032984;28;20189;-79
2021/10/17 01:02:17;;;;;;;6.20;4.20;;;9.40;99.90;;;;;;5047489;28;20589;-79
2021/10/17 01:04:43;;;;;;;7.40;6.03;;;9.40;99.90;;;;;;5032658;28;20527;-79
2021/10/17 01:07:09;;;;;;;7.43;5.30;;;9.40;99.90;;;;;;5032345;28;20319;-79
2021/10/17 01:09:36;;;;;;;6.72;5.65;;;9.40;99.90;;;;;;5047977;28;20569;-79
2021/10/17 01:12:03;;;;;;;10.30;5.80;;;9.40;99.90;;;;;;5030719;28;20172;-79
2021/10/17 01:14:29;;;;;;;9.38;5.75;;;9.40;99.90;;;;;;5030944;28;20212;-79
2021/10/17 01:16:55;;;;;;;6.00;5.40;;;9.40;99.90;;;;;;5047551;28;20666;-80
2021/10/17 01:19:22;;;;;;;10.40;6.00;;;9.40;99.90;;;;;;5048945;28;20556;-80
2021/10/17 01:21:56;;;;;;;8.27;5.75;;;9.40;99.90;;;;;;5031267;28;20576;-80
2021/10/17 01:24:21;;;;;;;7.30;5.95;;;9.40;99.90;;;;;;5031179;28;20174;-80
2021/10/17 01:26:49;;;;;;;7.72;5.65;;;9.40;99.90;;;;;;5047276;28;20218;-80
2021/10/17 01:29:15;;;;;;;8.95;5.78;;;9.40;99.90;;;;;;5014018;28;20181;-80
2021/10/17 01:31:51;;;;;;;7.93;5.78;;;9.40;99.90;;;;;;5029979;28;20181;-80
2021/10/17 01:34:18;;;;;;;9.30;6.03;;;9.40;99.90;;;;;;5030607;28;20201;-80
2021/10/17 01:36:43;;;;;;;10.45;5.72;;;9.40;99.90;;;;;;5030637;28;20198;-80
2021/10/17 01:39:15;;;;;;;5.50;4.60;;;9.40;99.90;;;;;;5030645;28;20165;-80
2021/10/17 01:41:41;;;;;;;8.65;4.72;;;9.30;99.90;;;;;;5031708;28;20166;-79
2021/10/17 01:44:12;;;;;;;8.68;5.30;;;9.30;99.90;;;;;;5030772;28;20184;-79
2021/10/17 01:46:39;;;;;;;5.38;4.38;;;9.30;99.90;;;;;;5014184;28;20185;-79
2021/10/17 01:49:07;;;;;;;9.32;4.85;;;9.30;99.90;;;;;;5031854;28;20231;-79
2021/10/17 01:51:40;;;;;;;7.72;5.18;;;9.20;99.90;;;;;;5046740;28;20185;-79
2021/10/17 01:54:06;;;;;;;6.03;5.10;;;9.20;99.90;;;;;;5030552;28;20261;-79
2021/10/17 01:56:33;;;;;;;8.85;5.00;;;9.10;99.90;;;;;;5033520;28;20214;-79
2021/10/17 01:59:00;;;;;;;12.23;5.85;;;9.10;99.90;;;;;;5031162;28;20189;-80
2021/10/17 02:01:27;;;;;;;6.93;5.03;;;9.10;99.90;;;;;;5046631;28;20162;-79
2021/10/17 02:03:53;;;;;;;7.60;6.20;;;9.10;99.90;;;;;;5030687;28;20215;-81
2021/10/17 02:06:20;;;;;;;8.60;5.72;;;9.10;99.90;;;;;;5030548;28;20193;-79
2021/10/17 02:08:51;;;;;;;8.10;5.50;;;9.10;99.90;;;;;;5047072;28;20216;-79
2021/10/17 02:11:17;;;;;;;7.20;4.87;;;9.10;99.90;;;;;;5013897;28;20213;-79
2021/10/17 02:13:43;;;;;;;8.70;5.50;;;9.10;99.90;;;;;;5029981;28;20711;-80
2021/10/17 02:16:10;;;;;;;7.53;5.32;;;9.10;99.90;;;;;;5017984;28;21130;-79
2021/10/17 02:18:35;;;;;;;7.47;5.00;;;9.10;99.90;;;;;;5049433;28;20181;-80
2021/10/17 02:21:02;;;;;;;6.13;5.25;;;9.10;99.90;;;;;;5047946;28;20223;-80
2021/10/17 02:23:28;;;;;;;6.00;5.32;;;9.10;99.90;;;;;;5014427;28;20181;-80
2021/10/17 02:25:54;;;;;;;7.40;6.03;;;9.10;99.90;;;;;;5014102;28;20197;-79
2021/10/17 02:28:29;;;;;;;8.07;5.05;;;9.10;99.90;;;;;;5047046;28;20553;-80
2021/10/17 02:30:56;;;;;;;8.77;5.25;;;9.10;99.90;;;;;;5030345;28;20174;-79
2021/10/17 02:33:25;;;;;;;11.75;5.97;;;9.10;99.90;;;;;;5034296;28;20166;-79
2021/10/17 02:35:51;;;;;;;7.63;5.33;;;9.10;99.90;;;;;;5047571;28;20208;-79
2021/10/17 02:38:17;;;;;;;7.55;5.40;;;9.10;99.90;;;;;;5014058;28;20212;-80
2021/10/17 02:40:43;;;;;;;7.00;5.60;;;9.10;99.90;;;;;;5013615;28;20843;-80
2021/10/17 02:43:12;;;;;;;8.60;5.78;;;9.00;99.90;;;;;;5015642;28;20567;-79
2021/10/17 02:45:38;;;;;;;6.77;5.63;;;9.10;99.90;;;;;;5035076;28;20189;-79
2021/10/17 02:48:04;;;;;;;9.35;6.15;;;9.10;99.90;;;;;;5034085;28;20789;-80
2021/10/17 02:50:32;;;;;;;9.40;5.88;;;9.10;99.90;;;;;;5033800;28;20177;-80
2021/10/17 02:53:00;;;;;;;12.45;6.22;;;9.00;99.90;;;;;;5050401;28;20174;-79
2021/10/17 02:55:28;;;;;;;7.88;5.20;;;9.00;99.90;;;;;;5050008;28;20230;-79
2021/10/17 02:57:54;;;;;;;7.03;6.33;;;9.00;99.90;;;;;;5033954;28;20193;-79
2021/10/17 03:00:20;;;;;;;8.40;5.70;;;8.90;99.90;;;;;;5075750;22;20220;-81
2021/10/17 03:02:50;;;;;;;7.90;5.75;;;8.90;99.90;;;;;;5060104;28;20172;-80
2021/10/17 03:05:17;;;;;;;7.40;5.35;;;8.90;99.90;;;;;;5056343;28;20176;-80
2021/10/17 03:07:43;;;;;;;11.80;5.97;;;8.80;99.90;;;;;;5063130;28;20183;-81
2021/10/17 03:10:09;;;;;;;5.78;4.63;;;8.70;99.90;;;;;;5069652;28;20694;-80
2021/10/17 03:12:35;;;;;;;5.70;4.27;;;8.70;99.90;;;;;;5064605;28;20192;-81
2021/10/17 03:15:06;;;;;;;8.20;5.50;;;8.70;99.90;;;;;;5065114;28;20713;-81
2021/10/17 03:17:32;;;;;;;8.65;5.40;;;8.60;99.90;;;;;;5070408;28;20173;-81
2021/10/17 03:19:58;;;;;;;6.10;4.50;;;8.60;99.90;;;;;;5051218;28;20189;-81
2021/10/17 03:22:31;;;;;;;7.30;6.00;;;8.60;99.90;;;;;;5059909;28;20251;-81
2021/10/17 03:24:57;;;;;;;7.37;5.67;;;8.50;99.90;;;;;;5076790;28;20177;-81
2021/10/17 03:27:23;;;;;;;8.95;5.80;;;8.50;99.90;;;;;;5076390;28;20211;-81
2021/10/17 03:29:53;;;;;;;5.85;4.97;;;8.40;99.90;;;;;;5070648;28;20281;-82
2021/10/17 03:32:19;;;;;;;6.47;5.83;;;8.40;99.90;;;;;;5068197;28;20180;-81
2021/10/17 03:34:46;;;;;;;6.32;4.65;;;8.30;99.90;;;;;;5035582;28;20200;-82
2021/10/17 03:37:14;;;;;;;7.53;5.72;;;8.30;99.90;;;;;;5034512;28;20172;-82
2021/10/17 03:39:40;;;;;;;8.13;5.68;;;8.30;99.90;;;;;;5074989;28;20192;-81
2021/10/17 03:42:06;;;;;;;5.15;4.65;;;8.30;99.90;;;;;;5074926;28;20169;-81
2021/10/17 03:44:32;;;;;;;11.23;5.57;;;8.30;99.90;;;;;;5075177;28;20203;-82
2021/10/17 03:46:59;;;;;;;7.03;5.78;;;8.30;99.90;;;;;;5074253;28;20625;-83
2021/10/17 03:49:27;;;;;;;7.20;5.35;;;8.30;99.90;;;;;;5070225;28;20254;-81
2021/10/17 03:51:53;;;;;;;8.13;4.97;;;8.30;99.90;;;;;;5067438;28;20173;-81
2021/10/17 03:54:19;;;;;;;5.13;4.60;;;8.30;99.90;;;;;;5069371;28;20204;-81
2021/10/17 03:56:45;;;;;;;6.35;4.60;;;8.40;99.90;;;;;;5067206;28;20169;-81
2021/10/17 03:59:15;;;;;;;7.65;5.45;;;8.40;99.90;;;;;;5061836;28;20721;-81
2021/10/17 04:01:44;;;;;;;5.85;5.13;;;8.40;99.90;;;;;;5062061;28;20270;-81
2021/10/17 04:04:10;;;;;;;6.03;5.10;;;8.40;99.90;;;;;;5061598;28;20180;-81
2021/10/17 04:06:37;;;;;;;6.90;4.93;;;8.40;99.90;;;;;;5060615;28;20173;-80
2021/10/17 04:09:08;;;;;;;5.38;4.22;;;8.30;99.90;;;;;;5057590;28;20189;-81
2021/10/17 04:11:35;;;;;;;6.00;4.63;;;8.30;99.90;;;;;;5065425;28;20172;-82
2021/10/17 04:14:00;;;;;;;9.10;5.60;;;8.30;99.90;;;;;;5072298;28;20165;-81
2021/10/17 04:16:27;;;;;;;7.97;4.95;;;8.30;99.90;;;;;;5073166;28;20614;-81
2021/10/17 04:18:53;;;;;;;7.53;5.70;;;8.30;99.90;;;;;;5074507;28;20191;-81
2021/10/17 04:21:19;;;;;;;8.30;4.80;;;8.30;99.90;;;;;;5074160;28;20583;-81
2021/10/17 04:23:44;;;;;;;8.67;4.83;;;8.30;99.90;;;;;;5074452;28;20180;-81
2021/10/17 04:26:10;;;;;;;5.87;4.93;;;8.30;99.90;;;;;;5057692;28;20594;-82
2021/10/17 04:28:42;;;;;;;7.88;6.10;;;8.30;99.90;;;;;;5074820;28;20574;-82
2021/10/17 04:31:08;;;;;;;7.63;4.63;;;8.30;99.90;;;;;;5075443;28;20177;-81
2021/10/17 04:33:34;;;;;;;7.63;4.80;;;8.30;99.90;;;;;;5057379;28;20241;-80
2021/10/17 04:36:01;;;;;;;12.27;5.35;;;8.20;99.90;;;;;;5059110;28;20208;-80
2021/10/17 04:38:27;;;;;;;9.00;5.70;;;8.20;99.90;;;;;;5055197;28;20176;-81
2021/10/17 04:40:53;;;;;;;7.40;5.33;;;8.20;99.90;;;;;;5068057;28;20571;-81
2021/10/17 04:43:18;;;;;;;9.03;5.67;;;8.20;99.90;;;;;;5071237;28;20168;-80
2021/10/17 04:45:44;;;;;;;13.23;5.20;;;8.20;99.90;;;;;;5071850;28;20165;-80
2021/10/17 04:48:11;;;;;;;10.70;6.25;;;8.10;99.90;;;;;;5071356;28;20229;-80
2021/10/17 04:50:37;;;;;;;8.10;6.00;;;8.10;99.90;;;;;;5071585;28;20207;-81
2021/10/17 04:53:03;;;;;;;7.87;5.10;;;8.10;99.90;;;;;;5068233;28;20185;-80
2021/10/17 04:55:29;;;;;;;9.57;5.88;;;8.10;99.90;;;;;;5069455;28;20207;-81
2021/10/17 04:58:02;;;;;;;5.05;4.38;;;8.00;99.90;;;;;;5043966;28;20265;-80
2021/10/17 05:00:29;;;;;;;9.05;5.22;;;8.00;99.90;;;;;;5054849;28;20224;-81
2021/10/17 05:02:59;;;;;;;8.10;5.57;;;8.00;99.90;;;;;;5053621;28;20252;-81
2021/10/17 05:05:26;;;;;;;6.80;6.07;;;8.00;99.90;;;;;;5052843;28;20173;-81
2021/10/17 05:07:52;;;;;;;9.45;6.35;;;8.00;99.90;;;;;;5059976;28;20173;-81
2021/10/17 05:10:18;;;;;;;6.17;4.90;;;7.90;99.90;;;;;;5053014;28;20191;-81
2021/10/17 05:12:43;;;;;;;7.20;5.20;;;7.90;99.90;;;;;;5064089;28;20551;-81
2021/10/17 05:15:10;;;;;;;10.10;5.57;;;7.90;99.90;;;;;;5074130;28;20622;-81
2021/10/17 05:17:36;;;;;;;9.25;6.15;;;7.90;99.90;;;;;;5061340;28;20181;-81
2021/10/17 05:20:02;;;;;;;6.43;4.97;;;7.80;99.90;;;;;;5055613;28;20192;-81
2021/10/17 05:22:30;;;;;;;6.47;4.65;;;7.80;99.90;;;;;;5038538;28;20614;-80
2021/10/17 05:24:56;;;;;;;6.73;4.90;;;7.80;99.90;;;;;;5061259;28;20165;-81
2021/10/17 05:27:22;;;;;;;7.32;4.40;;;7.80;99.90;;;;;;5060356;28;20683;-80
2021/10/17 05:29:48;;;;;;;11.52;4.78;;;7.80;99.90;;;;;;5061193;28;20200;-80
2021/10/17 05:32:14;;;;;;;6.25;4.53;;;7.80;99.90;;;;;;5059870;28;20161;-81
2021/10/17 05:34:40;;;;;;;7.30;4.50;;;7.80;99.90;;;;;;5043259;28;20211;-81
2021/10/17 05:37:06;;;;;;;5.27;4.70;;;7.80;99.90;;;;;;5060613;28;20231;-80
2021/10/17 05:39:31;;;;;;;6.20;5.03;;;7.80;99.90;;;;;;5059204;28;20673;-80
2021/10/17 05:41:58;;;;;;;5.53;4.10;;;7.80;99.90;;;;;;5042213;28;20173;-81
2021/10/17 05:44:23;;;;;;;7.43;4.70;;;7.80;99.90;;;;;;5058173;28;20680;-80
2021/10/17 05:46:50;;;;;;;8.82;4.78;;;7.80;99.90;;;;;;5042379;28;20527;-81
2021/10/17 05:49:15;;;;;;;6.50;4.17;;;7.80;99.90;;;;;;5056441;28;20189;-80
2021/10/17 05:51:41;;;;;;;7.40;5.20;;;7.80;99.90;;;;;;5023702;28;20196;-80
2021/10/17 05:54:08;;;;;;;8.82;5.82;;;7.80;99.90;;;;;;5057190;28;20172;-80
2021/10/17 05:56:34;;;;;;;8.40;5.80;;;7.80;99.90;;;;;;5057560;28;20176;-80
2021/10/17 05:59:00;;;;;;;6.30;5.70;;;7.70;99.90;;;;;;5039268;28;20200;-81
2021/10/17 06:01:26;;;;;;;8.75;4.55;;;7.70;99.90;;;;;;5056460;28;20173;-80
2021/10/17 06:04:05;;;;;;;10.48;5.53;;;7.70;99.90;;;;;;5040733;28;20590;-80
2021/10/17 06:06:43;;;;;;;9.23;5.53;;;7.70;99.90;;;;;;5055143;28;20176;-80
2021/10/17 06:09:11;;;;;;;7.53;4.25;;;7.70;99.90;;;;;;5056382;28;20198;-80
2021/10/17 06:11:44;;;;;;;7.63;5.43;;;7.80;99.90;;;;;;5055006;28;20583;-80
2021/10/17 06:14:11;;;;;;;6.75;5.20;;;7.80;99.90;;;;;;5055566;28;20169;-80
2021/10/17 06:16:36;;;;;;;10.67;5.47;;;7.80;99.90;;;;;;5056663;28;20503;-80
2021/10/17 06:19:02;;;;;;;12.13;6.70;;;7.80;99.90;;;;;;5060400;28;20594;-80
2021/10/17 06:21:36;;;;;;;6.05;4.95;;;7.70;99.90;;;;;;5065447;28;20160;-80
2021/10/17 06:24:05;;;;;;;5.93;4.28;;;7.80;99.90;;;;;;5068787;28;20252;-80
2021/10/17 06:26:31;;;;;;;5.78;4.40;;;7.80;99.90;;;;;;5064290;28;20513;-80
2021/10/17 06:28:57;;;;;;;4.47;3.83;;;7.80;99.90;;;;;;5044272;28;20193;-80
2021/10/17 06:31:23;;;;;;;5.72;4.45;;;7.80;99.90;;;;;;5076404;28;20168;-80
2021/10/17 06:33:50;;;;;;;7.82;4.72;;;7.80;99.90;;;;;;5071339;28;20613;-80
2021/10/17 06:36:16;;;;;;;7.53;4.63;;;7.80;99.90;;;;;;5085336;28;20196;-79
2021/10/17 06:38:42;;;;;;;6.80;4.77;;;7.90;99.90;;;;;;5086321;28;20697;-80
2021/10/17 06:41:08;;;;;;;4.57;4.17;;;7.90;99.90;;;;;;5065531;28;20175;-78
2021/10/17 06:43:33;;;;;;;8.30;5.43;;;7.90;99.90;;;;;;5088486;28;20615;-81
2021/10/17 06:46:18;;;;;;;10.88;6.18;;;7.90;99.90;;;;;;5066895;28;20274;-80
2021/10/17 06:48:48;;;;;;;6.82;4.63;;;8.00;99.90;;;;;;5078439;28;20188;-79
2021/10/17 06:51:14;;;;;;;8.10;5.20;;;8.00;99.90;;;;;;5077032;28;20164;-80
2021/10/17 06:53:40;;;;;;;4.73;4.00;;;8.00;99.90;;;;;;5075438;28;20168;-79
2021/10/17 06:56:07;;;;;;;6.90;4.80;;;8.10;99.90;;;;;;5076705;28;20557;-79
2021/10/17 06:58:33;;;;;;;6.00;4.15;;;8.10;99.90;;;;;;5077514;28;20160;-79
2021/10/17 07:00:59;;;;;;;6.43;4.13;;;8.20;99.90;;;;;;5066704;28;20204;-80
2021/10/17 07:03:25;;;;;;;5.25;4.75;;;8.30;99.90;;;;;;5074187;28;20566;-80
2021/10/17 07:06:08;;;;;;;12.80;4.75;;;8.30;99.90;;;;;;5068031;28;20268;-80
2021/10/17 07:08:38;;;;;;;8.68;4.88;;;8.40;99.90;;;;;;5082899;28;20194;-79
2021/10/17 07:11:05;;;;;;;6.80;5.20;;;8.40;99.90;;;;;;5080006;28;20176;-81
2021/10/17 07:13:54;;;;;;;7.95;5.35;;;8.60;99.90;;;;;;5065435;28;20176;-79
2021/10/17 07:16:25;;;;;;;4.57;4.07;;;8.60;99.90;;;;;;5100517;28;20208;-79
2021/10/17 07:18:51;;;;;;;7.35;5.68;;;8.70;99.90;;;;;;5068399;28;20236;-79
2021/10/17 07:21:17;;;;;;;6.70;4.27;;;8.80;99.90;;;;;;5100462;28;20166;-79
2021/10/17 07:23:47;;;;;;;6.63;4.45;;;8.90;99.90;;;;;;5085029;28;20206;-80
2021/10/17 07:26:14;;;;;;;5.68;4.05;;;9.00;99.90;;;;;;5092332;28;20191;-79
2021/10/17 07:28:40;;;;;;;6.00;5.03;;;9.20;99.90;;;;;;5078125;28;20173;-80
2021/10/17 07:31:08;;;;;;;10.48;5.10;;;9.30;99.90;;;;;;5073604;28;20243;-79
2021/10/17 07:33:40;;;;;;;6.70;4.70;;;9.40;99.90;;;;;;5060778;28;20180;-81
2021/10/17 07:36:09;;;;;;;6.78;4.25;;;9.50;99.90;;;;;;5081759;28;20199;-80
2021/10/17 07:38:35;;;;;;;4.50;3.70;;;9.60;99.90;;;;;;5078662;28;20218;-80
2021/10/17 07:41:01;;;;;;;5.43;4.23;;;9.60;99.90;;;;;;5062746;28;20184;-79
2021/10/17 07:43:29;;;;;;;7.85;4.00;;;9.80;99.90;;;;;;5068823;28;20406;-79
2021/10/17 07:45:55;;;;;;;6.10;4.30;;;9.90;99.90;;;;;;5080624;28;20236;-80
2021/10/17 07:48:21;;;;;;;4.55;3.75;;;10.00;99.90;;;;;;5097905;28;20218;-80
2021/10/17 07:50:48;;;;;;;5.80;3.97;;;10.20;99.90;;;;;;5064144;28;20192;-80
2021/10/17 07:53:15;;;;;;;9.85;4.25;;;10.30;99.90;;;;;;5095091;28;20232;-81
2021/10/17 07:55:41;;;;;;;7.00;4.72;;;10.40;99.90;;;;;;5080544;28;20212;-80
2021/10/17 07:58:12;;;;;;;7.25;4.95;;;10.40;99.90;;;;;;5094952;28;20160;-80
2021/10/17 08:00:45;;;;;;;6.65;4.38;;;10.50;99.90;;;;;;5095822;28;20200;-80
2021/10/17 08:03:37;;;;;;;6.72;4.72;;;10.50;99.90;;;;;;5081993;28;20184;-80
2021/10/17 08:06:20;;;;;;;8.00;4.00;;;10.50;99.90;;;;;;5080462;28;20160;-80
2021/10/17 08:08:46;;;;;;;5.00;4.28;;;10.60;99.90;;;;;;5061818;28;20236;-80
2021/10/17 08:11:13;;;;;;;7.23;4.10;;;10.80;99.90;;;;;;5076611;28;20185;-80
2021/10/17 08:13:39;;;;;;;5.60;4.38;;;11.20;99.90;;;;;;5075758;28;20556;-81
2021/10/17 08:16:05;;;;;;;6.00;4.15;;;11.80;99.90;;;;;;5051819;28;20232;-81
2021/10/17 08:18:38;;;;;;;4.60;4.20;;;12.60;99.90;;;;;;5052273;28;20693;-81
2021/10/17 08:21:05;;;;;;;4.03;3.07;;;13.60;99.90;;;;;;5035907;28;20248;-81
2021/10/17 08:23:36;;;;;;;6.47;3.70;;;14.50;99.90;;;;;;5051485;28;20617;-81
2021/10/17 08:26:01;;;;;;;4.33;3.10;;;15.20;99.90;;;;;;5052355;28;20579;-81
2021/10/17 08:28:28;;;;;;;5.90;3.03;;;15.80;99.90;;;;;;5036381;28;20586;-81
2021/10/17 08:31:00;;;;;;;6.57;3.97;;;16.40;99.90;;;;;;5037519;28;20625;-81
2021/10/17 08:33:27;;;;;;;6.10;3.63;;;17.30;99.90;;;;;;5042642;28;20918;-81
2021/10/17 08:35:53;;;;;;;3.67;2.50;;;18.10;99.90;;;;;;5071660;28;20622;-81
2021/10/17 08:38:19;;;;;;;4.50;2.57;;;18.90;99.90;;;;;;5054793;28;20215;-82
2021/10/17 08:40:56;;;;;;;4.07;2.53;;;19.80;99.90;;;;;;5058979;28;21015;-82
2021/10/17 08:43:24;;;;;;;4.40;2.40;;;20.70;99.90;;;;;;5064095;28;20979;-80
2021/10/17 08:46:04;;;;;;;2.97;2.33;;;21.40;99.90;;;;;;5069697;28;20609;-79
2021/10/17 08:48:37;;;;;;;4.27;2.70;;;22.20;99.90;;;;;;5061261;28;20601;-79
2021/10/17 08:51:06;;;;;;;4.40;2.57;;;22.70;99.90;;;;;;5043608;28;20586;-79
2021/10/17 08:53:46;;;;;;;3.63;2.30;;;23.30;99.90;;;;;;5065227;28;20597;-80
2021/10/17 08:56:17;;;;;;;5.10;3.67;;;23.90;99.90;;;;;;5045326;28;20619;-79
2021/10/17 08:58:45;;;;;;;3.70;2.47;;;24.30;99.90;;;;;;5060845;28;20654;-79
2021/10/17 09:01:19;;;;;;;4.70;3.00;;;24.90;99.90;;;;;;5054382;28;20627;-79
2021/10/17 09:04:00;;;;;;;2.80;2.50;;;25.50;99.90;;;;;;5034548;28;20571;-79
2021/10/17 09:06:40;;;;;;;3.37;2.60;;;25.60;99.90;;;;;;5038702;28;20571;-78
2021/10/17 09:09:18;;;;;;;3.67;3.00;;;26.00;99.90;;;;;;5054157;28;20727;-79
2021/10/17 09:11:57;;;;;;;4.13;2.60;;;26.20;99.90;;;;;;5071181;28;20670;-79
2021/10/17 09:14:27;;;;;;;3.43;2.70;;;26.10;99.90;;;;;;5054299;28;20576;-79
2021/10/17 09:16:55;;;;;;;5.73;2.90;;;26.20;99.90;;;;;;5072109;28;20659;-79
2021/10/17 09:19:29;;;;;;;3.33;2.53;;;26.20;99.90;;;;;;5053843;28;21031;-79
2021/10/17 09:22:03;;;;;;;3.20;2.17;;;26.50;99.90;;;;;;5037434;28;20610;-79
2021/10/17 09:24:38;;;;;;;4.70;2.20;;;26.80;98.90;;;;;;5054028;28;20566;-79
2021/10/17 09:27:23;;;;;;;4.80;2.57;;;27.00;98.80;;;;;;5039201;28;20574;-79
2021/10/17 09:29:52;;;;;;;3.20;2.47;;;27.40;98.70;;;;;;5067049;28;20630;-79
2021/10/17 09:32:25;;;;;;;3.50;2.50;;;27.80;98.10;;;;;;5069591;28;20579;-79
2021/10/17 09:35:06;;;;;;;3.87;2.53;;;28.10;97.80;;;;;;5071152;28;20631;-79
2021/10/17 09:37:45;;;;;;;7.70;3.40;;;28.60;96.10;;;;;;5069691;28;20575;-79
2021/10/17 09:40:32;;;;;;;6.63;2.90;;;28.90;95.80;;;;;;5055826;28;20680;-79
2021/10/17 09:43:25;;;;;;;3.40;3.10;;;29.00;94.60;;;;;;5043214;28;20589;-79
2021/10/17 09:46:12;;;;;;;3.83;2.30;;;29.10;91.80;;;;;;5053129;28;20649;-79
2021/10/17 09:48:38;;;;;;;3.10;1.90;;;29.00;91.10;;;;;;5053526;28;20655;-79
2021/10/17 09:51:05;;;;;;;4.90;2.53;;;29.10;91.40;;;;;;5070845;28;20560;-79
2021/10/17 09:53:58;;;;;;;3.10;2.07;;;29.30;90.90;;;;;;5053150;28;20618;-79
2021/10/17 09:56:27;;;;;;;3.40;2.30;;;29.60;91.10;;;;;;5068440;28;20647;-79
2021/10/17 09:58:54;;;;;;;6.53;2.33;;;29.60;88.40;;;;;;5071399;28;20654;-79
2021/10/17 10:01:23;;;;;;;4.63;2.20;;;29.50;86.60;;;;;;5070668;28;20567;-79
2021/10/17 10:03:54;;;;;;;4.63;2.60;;;29.40;84.80;;;;;;5050091;28;20588;-81
2021/10/17 10:06:24;;;;;;;2.80;2.40;;;29.50;85.30;;;;;;5032911;28;20615;-80
2021/10/17 10:08:53;;;;;;;3.83;2.10;;;29.40;81.50;;;;;;5051650;28;20959;-79
2021/10/17 10:11:23;;;;;;;4.00;2.10;;;29.20;81.90;;;;;;5057524;28;20934;-80
2021/10/17 10:13:52;;;;;;;3.30;2.37;;;28.90;77.30;;;;;;5036890;28;20571;-79
2021/10/17 10:16:20;;;;;;;3.20;2.70;;;28.40;78.00;;;;;;5053034;28;20682;-79
2021/10/17 10:18:50;;;;;;;4.33;2.37;;;28.20;77.90;;;;;;5070893;28;20599;-80
2021/10/17 10:21:16;;;;;;;3.83;2.70;;;27.80;76.30;;;;;;5071729;28;20599;-80
2021/10/17 10:23:42;;;;;;;3.60;2.73;;;27.50;77.20;;;;;;5052793;28;21137;-79
2021/10/17 10:26:10;;;;;;;4.37;2.23;;;27.30;76.70;;;;;;5072805;28;20196;-80
2021/10/17 10:28:39;;;;;;;4.50;3.00;;;26.90;75.80;;;;;;5072633;28;20566;-80
2021/10/17 10:31:05;;;;;;;3.10;2.40;;;26.70;74.10;;;;;;5069728;28;20677;-80
2021/10/17 10:33:42;;;;;;;3.20;1.83;;;26.40;74.40;;;;;;5052258;28;20718;-79
2021/10/17 10:36:13;;;;;;;4.90;3.13;;;26.10;73.10;;;;;;5070854;28;20942;-79
2021/10/17 10:38:48;;;;;;;5.60;3.27;;;26.00;74.30;;;;;;5069745;28;20986;-80
2021/10/17 10:41:15;;;;;;;5.97;2.60;;;26.10;75.10;;;;;;5069834;28;20596;-80
2021/10/17 10:43:41;;;;;;;4.67;2.40;;;26.10;76.40;;;;;;5058204;28;20578;-79
2021/10/17 10:46:07;;;;;;;3.57;2.17;;;26.10;75.80;;;;;;5062094;28;20639;-79
2021/10/17 10:48:45;;;;;;;4.40;2.80;;;25.90;74.60;;;;;;5070898;28;20650;-78
2021/10/17 10:51:31;;;;;;;2.40;1.70;;;25.90;73.90;;;;;;5069623;28;20540;-79
2021/10/17 10:53:58;;;;;;;3.50;1.90;;;25.60;73.60;;;;;;5052789;28;20598;-79
2021/10/17 10:56:44;;;;;;;4.43;2.57;;;25.30;73.70;;;;;;5052882;28;20574;-79
2021/10/17 10:59:11;;;;;;;4.97;2.67;;;25.20;73.70;;;;;;5068831;28;20629;-79
2021/10/17 11:02:18;;;;;;;3.30;3.00;;;25.10;73.40;;;;;;5016613;28;20580;-79
2021/10/17 11:04:46;;;;;;;4.63;2.10;;;24.80;72.30;;;;;;5055236;28;20640;-80
2021/10/17 11:07:23;;;;;;;5.30;2.70;;;24.50;71.80;;;;;;5021337;28;20624;-78
2021/10/17 11:09:53;;;;;;;3.80;2.30;;;24.00;71.80;;;;;;5037478;28;20599;-78
2021/10/17 11:12:41;;;;;;;4.63;2.27;;;23.80;72.10;;;;;;5054893;28;20568;-78
2021/10/17 11:15:08;;;;;;;5.10;2.30;;;23.60;72.00;;;;;;5036492;28;20633;-78
2021/10/17 11:17:34;;;;;;;2.30;1.83;;;23.50;72.60;;;;;;5056124;28;20628;-78
2021/10/17 11:20:00;;;;;;;4.27;1.80;;;23.40;72.70;;;;;;5054414;28;20702;-78
2021/10/17 11:22:34;;;;;;;4.13;1.97;;;23.30;72.90;;;;;;5039299;28;20183;-79
2021/10/17 11:25:01;;;;;;;3.43;1.27;;;23.30;73.40;;;;;;5073938;28;20633;-79
2021/10/17 11:27:26;;;;;;;2.43;1.63;;;23.20;73.50;;;;;;5069224;28;20737;-79
2021/10/17 11:29:52;;;;;;;3.47;1.70;;;23.20;73.50;;;;;;5068052;28;21071;-79
2021/10/17 11:32:19;;;;;;;3.47;2.13;;;23.10;72.90;;;;;;5075863;28;20225;-80
2021/10/17 11:34:57;;;;;;;4.30;2.90;;;23.10;73.10;;;;;;5076092;28;20711;-78
2021/10/17 11:37:26;;;;;;;4.63;2.27;;;22.80;69.40;;;;;;5073637;28;20175;-78
2021/10/17 11:40:10;;;;;;;2.17;1.40;;;22.80;72.10;;;;;;5070465;28;20617;-80
2021/10/17 11:42:48;;;;;;;2.30;1.40;;;22.90;71.80;;;;;;5073299;28;20571;-79
2021/10/17 11:45:25;;;;;;;3.60;1.53;;;22.90;72.30;;;;;;5075099;28;20622;-78
2021/10/17 11:47:52;;;;;;;2.10;1.20;;;23.00;71.80;;;;;;5039940;28;20618;-78
2021/10/17 11:50:21;;;;;;;2.83;1.50;;;22.90;71.80;;;;;;5055100;28;20614;-79
2021/10/17 11:53:07;;;;;;;2.63;1.40;;;22.90;71.20;;;;;;5055634;28;20571;-78
2021/10/17 11:55:37;;;;;;;3.30;1.67;;;22.80;71.90;;;;;;5052865;28;20598;-78
2021/10/17 11:58:14;;;;;;;2.93;1.30;;;22.80;72.00;;;;;;5069556;28;20584;-78
2021/10/17 12:00:42;;;;;;;3.23;1.20;;;22.80;71.70;;;;;;5063546;28;20637;-79
2021/10/17 12:03:08;;;;;;;2.70;1.70;;;22.70;71.30;;;;;;5067182;28;20590;-78
2021/10/17 12:05:36;;;;;;;2.33;1.40;;;22.60;70.30;;;;;;5072254;28;20725;-78
2021/10/17 12:08:02;;;;;;;3.30;1.60;;;22.30;69.60;;;;;;5073153;28;20606;-78
2021/10/17 12:10:30;;;;;;;5.57;2.87;;;22.00;69.30;;;;;;5056586;28;20610;-78
2021/10/17 12:13:02;;;;;;;3.90;2.60;;;21.80;68.90;;;;;;5041867;28;20183;-79
2021/10/17 12:15:30;;;;;;;2.47;2.00;;;21.50;68.70;;;;;;5071997;28;20567;-80
2021/10/17 12:18:05;;;;;;;3.90;1.80;;;21.40;69.70;;;;;;5072958;28;20575;-79
2021/10/17 12:20:32;;;;;;;3.40;1.57;;;21.30;69.70;;;;;;5071180;28;20968;-79
2021/10/17 12:23:02;;;;;;;2.10;1.57;;;21.20;70.10;;;;;;5071397;28;20620;-79
2021/10/17 12:25:47;;;;;;;3.00;1.67;;;21.10;70.00;;;;;;5072703;28;20629;-79
2021/10/17 12:28:16;;;;;;;4.30;3.00;;;21.00;70.40;;;;;;5072394;28;20958;-79
2021/10/17 12:30:47;;;;;;;4.83;3.30;;;20.90;70.20;;;;;;5072478;28;20189;-78
2021/10/17 12:33:27;;;;;;;2.97;2.40;;;20.80;70.50;;;;;;5054593;28;20590;-81
2021/10/17 12:35:54;;;;;;;3.60;2.70;;;20.70;70.80;;;;;;5039232;28;20593;-83
2021/10/17 12:38:20;;;;;;;4.37;2.00;;;20.70;71.90;;;;;;5071032;28;20594;-79
2021/10/17 12:40:58;;;;;;;1.80;1.30;;;20.60;71.20;;;;;;5072646;28;20646;-78
2021/10/17 12:43:46;;;;;;;2.70;1.60;;;20.40;70.90;;;;;;5054113;28;20588;-78
2021/10/17 12:46:18;;;;;;;2.97;1.30;;;20.40;71.10;;;;;;5072443;28;20641;-78
2021/10/17 12:48:46;;;;;;;1.90;1.10;;;20.40;71.20;;;;;;5074579;28;20601;-79
2021/10/17 12:51:25;;;;;;;4.70;3.80;;;20.40;71.70;;;;;;5073019;28;20631;-78
2021/10/17 12:54:13;;;;;;;5.10;2.03;;;20.30;71.50;;;;;;5071081;28;20613;-78
2021/10/17 12:56:49;;;;;;;2.50;1.33;;;20.30;71.70;;;;;;5073899;28;20570;-80
2021/10/17 12:59:18;;;;;;;3.63;1.63;;;20.30;71.90;;;;;;5072591;28;20979;-80
2021/10/17 13:02:04;;;;;;;2.17;1.60;;;20.30;71.90;;;;;;5072805;28;21080;-80
2021/10/17 13:05:07;;;;;;;1.67;1.30;;;20.30;71.80;;;;;;5043994;28;20574;-81